Home

Purchase an Intro Flight Today

Click to View Intro Options

Member Pilots Top Up your account

Pilots - Select your top up amount

Special Intro Rates €99 / 30 mins or €150 for 60 mins

Thinking of completing your Private Pilots Licence? Would you like something special to give as a birthday present? Trim Flying Club Summer Special, contact us for a Intro Flight costing only €99 which will take you into the air for 30 minutes or €130 for 45 minutes with an instructor. Alternatively, if you would like to fly a little longer, you may consider staying airborne for 60 minutes at just €150. At very competitive rates, you can take to the skies and become a Private Pilot (PPL).

30 minute Flight - €9945 minute Flight - €13060 minute Flight - €150.

Contact us today if you wish to take an Intro Flight or purchase one for someone else. Trim your flying costs with us today !

Trim Airfield Aerial

Airfield3.jpg

Pooleys Visual Chart - EITM

Click for larger image of Trim Airfield

Trim Flying Club goes to the Aran Islands

Learn to fly at Trim Flying Club

Rainfall Radar Now

Atlantic Charts Pressure - Today

Atlantic Charts Rainfall - Today

 
 

Atlantic Charts Pressure - Tomorrow

Sunrise Sunset

Click for Dublin, Ireland Forecast

Aviation WX Dublin EIDW

[source: ADDS]
METAR
EIDW 020200Z 08008KT 7000 -RA BKN003 BKN005 BKN011 15/14 Q1001 NOSIG =
TAF
TAF AMD EIDW 020128Z 0201/0224 07011KT 9999 BKN005 OVC010 TEMPO 0203/0215 4000 RA BKN003 BECMG 0215/0217 34013KT NSW =